Terminal Aerodrome Forecast
Issued by NWS

Home | Current Version | Previous Version | Text Only | Print | Product List | Glossary On
Versions: 1 2 3 4 5 6 7 8 9 10 11 12 13 14 15 16 17 18 19 20 21 22 23 24 25 26
000
FTAK31 PAFA 211741
TAFAOR
TAF
PAOR 211741Z 2118/2218 11005KT 1/2SM FG OVC002
     FM211830 11004KT 2SM BR OVC002
     FM211900 11004KT P6SM SCT002 BKN060 BKN120
     FM220400 VRB03KT P6SM SCT060 OVC120
     FM221400 13004KT P6SM VCSH BKN060 OVC120=

USA.gov is the U.S. government's official web portal to all federal, state and local government web resources and services.